Time;durP1;ratioP1;P1;durP2;ratioP2;P2;SDS_P1;SDS_P2;PMS_P1;PMS_P2;Temp;Humidity;BMP_temperature;BMP_pressure;BME280_temperature;BME280_humidity;BME280_pressure;Samples;Min_cycle;Max_cycle;Signal;HPM_P1;HPM_P2
2022/03/17 00:01:46;;;;;;;;;;;;;;;7.67;50.35;100925.84;4460984;32;19997;-72
2022/03/17 00:04:13;;;;;;;;;;;;;;;7.72;50.69;100928.63;4461420;32;19969;-72
2022/03/17 00:06:41;;;;;;;;;;;;;;;7.17;50.98;100922.69;4461128;32;19989;-72
2022/03/17 00:09:08;;;;;;;;;;;;;;;7.57;50.24;100923.69;4444076;32;20016;-72
2022/03/17 00:11:35;;;;;;;;;;;;;;;7.61;50.55;100930.72;4446936;32;19988;-72
2022/03/17 00:14:02;;;;;;;;;;;;;;;7.24;51.19;100929.00;4447195;32;20007;-74
2022/03/17 00:16:28;;;;;;;;;;;;;;;7.41;50.95;100933.28;4460908;32;19989;-73
2022/03/17 00:18:56;;;;;;;;;;;;;;;7.21;51.74;100940.09;4461694;32;19981;-73
2022/03/17 00:21:23;;;;;;;;;;;;;;;7.41;50.66;100938.44;4461372;32;19993;-72
2022/03/17 00:23:50;;;;;;;;;;;;;;;7.43;50.34;100944.53;4461662;32;20032;-72
2022/03/17 00:26:17;;;;;;;;;;;;;;;7.29;51.03;100939.56;4448623;32;20310;-72
2022/03/17 00:28:45;;;;;;;;;;;;;;;7.27;51.04;100944.63;4460724;32;20048;-72
2022/03/17 00:31:14;;;;;;;;;;;;;;;7.50;50.05;100952.53;4447459;32;20029;-72
2022/03/17 00:33:41;;;;;;;;;;;;;;;7.48;50.07;100949.03;4462915;32;19980;-72
2022/03/17 00:36:09;;;;;;;;;;;;;;;7.45;50.16;100953.19;4462865;32;20052;-72
2022/03/17 00:38:37;;;;;;;;;;;;;;;7.44;50.26;100943.72;4463295;32;20038;-72
2022/03/17 00:41:04;;;;;;;;;;;;;;;7.50;50.12;100949.94;4462241;32;19969;-72
2022/03/17 00:43:33;;;;;;;;;;;;;;;7.33;50.32;100944.91;4463158;32;20361;-72
2022/03/17 00:46:01;;;;;;;;;;;;;;;7.38;50.13;100948.59;4459642;32;20378;-72
2022/03/17 00:48:29;;;;;;;;;;;;;;;7.48;50.45;100943.88;4462671;32;20043;-71
2022/03/17 00:50:56;;;;;;;;;;;;;;;7.47;50.76;100943.00;4463123;32;19985;-72
2022/03/17 00:53:23;;;;;;;;;;;;;;;7.49;50.46;100940.47;4462111;32;20258;-72
2022/03/17 00:55:50;;;;;;;;;;;;;;;6.84;52.95;100942.56;4461410;32;19999;-71
2022/03/17 00:58:16;;;;;;;;;;;;;;;7.22;51.48;100940.97;4447953;32;20046;-73
2022/03/17 01:00:43;;;;;;;;;;;;;;;7.31;51.32;100946.53;4445993;32;20030;-71
2022/03/17 01:03:10;;;;;;;;;;;;;;;7.52;50.48;100956.06;4446734;32;19977;-72
2022/03/17 01:05:39;;;;;;;;;;;;;;;7.43;50.50;100952.28;4446172;32;20050;-72
2022/03/17 01:08:06;;;;;;;;;;;;;;;7.35;50.56;100963.03;4447097;32;20071;-73
2022/03/17 01:10:34;;;;;;;;;;;;;;;7.27;50.62;100954.91;4139900;32;10000770;-72
2022/03/17 01:13:03;;;;;;;;;;;;;;;7.27;50.61;100960.06;4447182;32;19981;-72
2022/03/17 01:15:30;;;;;;;;;;;;;;;7.34;50.15;100961.22;4445421;32;20338;-72
2022/03/17 01:17:57;;;;;;;;;;;;;;;7.17;50.28;100958.75;4456187;32;20089;-72
2022/03/17 01:20:24;;;;;;;;;;;;;;;7.18;50.23;100965.69;4446992;32;19993;-72
2022/03/17 01:22:51;;;;;;;;;;;;;;;7.15;49.93;100967.22;4445479;32;20038;-72
2022/03/17 01:25:18;;;;;;;;;;;;;;;7.13;50.07;100966.25;4432411;32;19981;-73
2022/03/17 01:27:45;;;;;;;;;;;;;;;7.04;50.54;100960.66;4446700;32;19990;-73
2022/03/17 01:30:11;;;;;;;;;;;;;;;7.25;50.04;100951.41;4447304;32;19989;-73
2022/03/17 01:32:38;;;;;;;;;;;;;;;7.06;50.64;100954.78;4445746;32;20341;-73
2022/03/17 01:35:07;;;;;;;;;;;;;;;7.27;49.77;100954.91;4445519;32;20029;-72
2022/03/17 01:37:34;;;;;;;;;;;;;;;7.32;49.51;100957.72;4447681;32;20039;-72
2022/03/17 01:40:02;;;;;;;;;;;;;;;7.26;49.76;100957.44;4127300;32;10004073;-71
2022/03/17 01:42:28;;;;;;;;;;;;;;;7.24;49.77;100957.34;4440729;32;20162;-74
2022/03/17 01:44:56;;;;;;;;;;;;;;;7.15;50.02;100951.78;4447276;32;20041;-73
2022/03/17 01:47:29;;;;;;;;;;;;;;;6.86;50.32;100961.56;4445747;32;19972;-72
2022/03/17 01:49:56;;;;;;;;;;;;;;;7.09;50.29;100960.09;4432058;32;19977;-75
2022/03/17 01:52:23;;;;;;;;;;;;;;;7.04;50.23;100960.66;4446199;32;20310;-71
2022/03/17 01:54:50;;;;;;;;;;;;;;;6.87;50.45;100958.16;4446643;32;20030;-73
2022/03/17 01:57:17;;;;;;;;;;;;;;;6.82;50.79;100959.63;4445834;32;20028;-72
2022/03/17 01:59:46;;;;;;;;;;;;;;;6.91;50.49;100960.06;4445746;32;20036;-73
2022/03/17 02:02:14;;;;;;;;;;;;;;;7.01;50.21;100958.81;4445471;32;19984;-72
2022/03/17 02:04:42;;;;;;;;;;;;;;;7.06;49.80;100959.06;4432343;32;19981;-72
2022/03/17 02:07:09;;;;;;;;;;;;;;;7.11;49.49;100963.59;4431485;32;19977;-72
2022/03/17 02:09:36;;;;;;;;;;;;;;;6.88;50.16;100970.22;4441335;32;20384;-74
2022/03/17 02:14:49;;;;;;;;;;;;;;;7.03;49.63;100975.25;4446827;32;20000;-72
2022/03/17 02:17:16;;;;;;;;;;;;;;;6.82;50.29;100969.91;4402077;32;20290;-74
2022/03/17 02:19:43;;;;;;;;;;;;;;;6.73;50.68;100979.75;4446062;32;19993;-73
2022/03/17 02:22:11;;;;;;;;;;;;;;;6.81;50.15;100981.03;4444987;32;20386;-72
2022/03/17 02:27:25;;;;;;;;;;;;;;;6.83;49.97;100983.66;4437063;32;20326;-72
2022/03/17 02:29:52;;;;;;;;;;;;;;;6.73;50.13;100982.31;4445560;32;19996;-72
2022/03/17 02:32:20;;;;;;;;;;;;;;;6.73;50.42;100984.88;4446324;32;19989;-73
2022/03/17 02:34:47;;;;;;;;;;;;;;;6.64;50.51;100979.31;4446944;32;19989;-72
2022/03/17 02:37:15;;;;;;;;;;;;;;;6.62;50.68;100991.22;4446215;32;20079;-72
2022/03/17 02:39:42;;;;;;;;;;;;;;;6.80;50.14;100987.00;4446486;32;20078;-77
2022/03/17 02:42:10;;;;;;;;;;;;;;;6.57;50.73;100995.22;4445544;32;19985;-73
2022/03/17 02:44:37;;;;;;;;;;;;;;;6.69;50.82;100998.41;4444858;32;20001;-75
2022/03/17 02:47:04;;;;;;;;;;;;;;;6.85;50.39;101000.06;4445220;32;20034;-73
2022/03/17 02:49:32;;;;;;;;;;;;;;;6.85;51.23;101006.09;4446361;32;20319;-72
2022/03/17 02:52:01;;;;;;;;;;;;;;;6.88;50.98;101006.25;4444805;32;20032;-73
2022/03/17 02:54:30;;;;;;;;;;;;;;;6.73;51.13;101005.47;4446425;32;19995;-73
2022/03/17 02:56:56;;;;;;;;;;;;;;;6.71;51.45;101009.69;4446433;32;20430;-72
2022/03/17 02:59:23;;;;;;;;;;;;;;;6.80;51.21;101002.44;4444921;32;19985;-73
2022/03/17 03:01:50;;;;;;;;;;;;;;;6.78;51.33;101006.59;4446526;32;20031;-72
2022/03/17 03:04:18;;;;;;;;;;;;;;;6.84;51.40;101009.47;4446635;32;20039;-73
2022/03/17 03:06:46;;;;;;;;;;;;;;;6.85;51.46;101010.37;4446614;32;20445;-72
2022/03/17 03:09:14;;;;;;;;;;;;;;;6.79;51.76;101025.50;4446815;32;19985;-72
2022/03/17 03:11:40;;;;;;;;;;;;;;;6.89;51.68;101031.19;4445182;32;20042;-73
2022/03/17 03:14:07;;;;;;;;;;;;;;;6.93;51.05;101035.69;4434452;32;19992;-71
2022/03/17 03:16:35;;;;;;;;;;;;;;;7.09;50.38;101031.31;4437582;32;20000;-74
2022/03/17 03:19:03;;;;;;;;;;;;;;;7.02;50.42;101034.34;4443437;32;19977;-73
2022/03/17 03:21:30;;;;;;;;;;;;;;;6.95;50.44;101028.91;4445865;32;20001;-73
2022/03/17 03:23:57;;;;;;;;;;;;;;;6.84;51.21;101034.34;4446394;32;19993;-73
2022/03/17 03:26:26;;;;;;;;;;;;;;;6.84;51.07;101019.78;4445946;32;19973;-75
2022/03/17 03:28:54;;;;;;;;;;;;;;;6.98;50.52;101018.75;4446145;32;19977;-72
2022/03/17 03:31:21;;;;;;;;;;;;;;;6.87;50.36;101013.91;4446666;32;20405;-73
2022/03/17 03:33:48;;;;;;;;;;;;;;;6.94;50.17;101018.53;4446288;32;20320;-72
2022/03/17 03:39:00;;;;;;;;;;;;;;;6.64;51.08;101020.47;4430705;32;20035;-73
2022/03/17 03:41:27;;;;;;;;;;;;;;;6.69;50.78;101035.31;4429752;32;19986;-74
2022/03/17 03:43:54;;;;;;;;;;;;;;;6.59;50.79;101032.22;4430796;32;19993;-74
2022/03/17 03:46:22;;;;;;;;;;;;;;;6.59;50.62;101029.63;4446818;32;20026;-72
2022/03/17 03:48:49;;;;;;;;;;;;;;;6.44;51.13;101033.16;4445629;32;19981;-74
2022/03/17 03:51:16;;;;;;;;;;;;;;;6.45;51.24;101034.97;4446342;32;19996;-73
2022/03/17 03:56:29;;;;;;;;;;;;;;;6.44;50.72;101042.56;4442766;32;19995;-74
2022/03/17 03:58:57;;;;;;;;;;;;;;;6.30;51.38;101044.44;4446148;32;19990;-75
2022/03/17 04:01:25;;;;;;;;;;;;;;;6.14;51.65;101037.59;4446292;32;19998;-73
2022/03/17 04:03:54;;;;;;;;;;;;;;;6.22;51.93;101035.44;4445851;32;20000;-73
2022/03/17 04:06:20;;;;;;;;;;;;;;;6.30;51.74;101034.16;4431167;32;20042;-73
2022/03/17 04:08:47;;;;;;;;;;;;;;;6.23;51.69;101026.94;4445405;32;20389;-76
2022/03/17 04:11:15;;;;;;;;;;;;;;;6.28;51.43;101025.47;4432395;32;20012;-73
2022/03/17 04:13:41;;;;;;;;;;;;;;;6.28;51.41;101026.34;4449425;32;20310;-75
2022/03/17 04:16:09;;;;;;;;;;;;;;;6.16;52.36;101019.69;4436213;32;20034;-75
2022/03/17 04:18:36;;;;;;;;;;;;;;;6.48;51.20;101014.53;4428637;32;20020;-73
2022/03/17 04:21:03;;;;;;;;;;;;;;;6.35;51.64;101011.25;4136935;32;10004157;-72
2022/03/17 04:23:29;;;;;;;;;;;;;;;6.45;50.83;101014.38;4430727;32;19994;-75
2022/03/17 04:25:56;;;;;;;;;;;;;;;6.43;50.54;101010.84;4445461;32;20289;-76
2022/03/17 04:28:23;;;;;;;;;;;;;;;6.39;50.76;101019.22;4445496;32;20314;-76
2022/03/17 04:30:50;;;;;;;;;;;;;;;6.34;51.19;101027.47;4445471;32;19993;-75
2022/03/17 04:33:17;;;;;;;;;;;;;;;6.27;51.65;101034.00;4431375;32;20000;-76
2022/03/17 04:35:43;;;;;;;;;;;;;;;6.24;51.44;101045.00;4445251;32;20038;-77
2022/03/17 04:38:10;;;;;;;;;;;;;;;6.22;51.47;101056.00;4441532;32;19982;-71
2022/03/17 04:40:37;;;;;;;;;;;;;;;6.27;51.40;101062.28;4444949;32;20022;-74
2022/03/17 04:43:04;;;;;;;;;;;;;;;6.41;50.65;101069.03;4445285;32;19989;-73
2022/03/17 04:45:31;;;;;;;;;;;;;;;6.15;50.97;101064.19;4431429;32;20181;-72
2022/03/17 04:47:59;;;;;;;;;;;;;;;6.15;50.88;101059.06;4412345;32;19973;-71
2022/03/17 04:50:25;;;;;;;;;;;;;;;6.18;50.70;101064.34;4445728;32;19985;-74
2022/03/17 04:55:38;;;;;;;;;;;;;;;6.08;50.68;101062.09;4445382;32;19981;-73
2022/03/17 04:58:06;;;;;;;;;;;;;;;6.18;50.70;101065.22;4431194;32;20318;-74
2022/03/17 05:00:33;;;;;;;;;;;;;;;6.19;50.53;101071.25;4444848;32;20023;-73
2022/03/17 05:03:02;;;;;;;;;;;;;;;5.94;51.38;101074.22;4445227;32;20266;-75
2022/03/17 05:05:29;;;;;;;;;;;;;;;6.03;50.99;101080.75;4446119;32;20026;-72
2022/03/17 05:07:57;;;;;;;;;;;;;;;6.14;50.72;101077.84;4420209;32;19985;-73
2022/03/17 05:10:24;;;;;;;;;;;;;;;5.94;51.30;101075.09;4431285;32;19997;-74
2022/03/17 05:12:51;;;;;;;;;;;;;;;5.85;51.43;101078.81;4459523;32;20044;-71
2022/03/17 05:15:18;;;;;;;;;;;;;;;5.90;51.37;101083.38;4448829;32;20044;-71
2022/03/17 05:17:47;;;;;;;;;;;;;;;6.11;50.70;101098.25;4456975;32;20029;-73
2022/03/17 05:20:18;;;;;;;;;;;;;;;6.16;50.62;101107.09;4458486;32;20383;-70
2022/03/17 05:22:45;;;;;;;;;;;;;;;5.99;51.39;101124.16;4453810;32;19988;-72
2022/03/17 05:25:12;;;;;;;;;;;;;;;6.08;51.70;101128.94;4451782;32;20056;-73
2022/03/17 05:27:39;;;;;;;;;;;;;;;6.04;51.59;101135.59;4449158;32;19982;-73
2022/03/17 05:30:08;;;;;;;;;;;;;;;6.04;51.81;101130.47;4459564;32;19978;-79
2022/03/17 05:32:35;;;;;;;;;;;;;;;6.21;51.35;101123.66;4456902;32;19989;-71
2022/03/17 05:35:02;;;;;;;;;;;;;;;6.40;50.31;101134.12;4446865;32;20004;-71
2022/03/17 05:37:29;;;;;;;;;;;;;;;6.33;51.04;101137.19;4443655;32;20056;-72
2022/03/17 05:39:56;;;;;;;;;;;;;;;6.64;50.16;101144.84;4451631;32;20009;-72
2022/03/17 05:42:22;;;;;;;;;;;;;;;6.46;50.91;101147.31;4449934;32;20008;-72
2022/03/17 05:44:50;;;;;;;;;;;;;;;6.59;50.61;101147.97;4445470;32;19985;-71
2022/03/17 05:47:17;;;;;;;;;;;;;;;6.80;50.42;101161.97;4458023;32;20453;-72
2022/03/17 05:49:44;;;;;;;;;;;;;;;6.75;50.84;101163.41;4444054;32;19985;-73
2022/03/17 05:52:11;;;;;;;;;;;;;;;6.87;50.85;101164.06;4460815;32;19989;-71
2022/03/17 05:54:37;;;;;;;;;;;;;;;6.82;51.20;101170.66;4460576;32;20022;-72
2022/03/17 05:57:04;;;;;;;;;;;;;;;7.03;50.50;101170.00;4460109;32;19980;-75
2022/03/17 05:59:31;;;;;;;;;;;;;;;7.33;49.96;101170.69;4461365;32;20020;-77
2022/03/17 06:01:59;;;;;;;;;;;;;;;7.49;49.75;101167.19;4460830;32;20747;-78
2022/03/17 06:04:43;;;;;;;;;;;;;;;7.66;49.54;101176.66;4449189;32;20030;-72
2022/03/17 06:07:10;;;;;;;;;;;;;;;7.77;49.23;101175.47;4460353;32;19985;-72
2022/03/17 06:09:38;;;;;;;;;;;;;;;7.97;49.06;101175.53;4461471;32;19993;-71
2022/03/17 06:12:06;;;;;;;;;;;;;;;7.96;49.15;101181.50;4454685;32;19980;-78
2022/03/17 06:14:33;;;;;;;;;;;;;;;8.13;49.04;101181.47;4444457;32;19989;-71
2022/03/17 06:16:59;;;;;;;;;;;;;;;8.30;49.14;101179.72;4443948;32;19981;-72
2022/03/17 06:19:29;;;;;;;;;;;;;;;8.35;49.14;101183.38;4432486;32;20004;-70
2022/03/17 06:21:58;;;;;;;;;;;;;;;8.53;49.14;101188.56;4448855;32;19988;-77
2022/03/17 06:24:25;;;;;;;;;;;;;;;8.47;48.58;101195.12;4459117;32;19981;-72
2022/03/17 06:26:52;;;;;;;;;;;;;;;8.64;48.53;101196.78;4458371;32;20287;-80
2022/03/17 06:29:19;;;;;;;;;;;;;;;8.62;48.07;101198.44;4441968;32;19992;-71
2022/03/17 06:31:45;;;;;;;;;;;;;;;8.63;48.31;101205.34;4438163;32;20023;-74
2022/03/17 06:34:12;;;;;;;;;;;;;;;8.79;48.63;101210.37;4431163;32;20011;-74
2022/03/17 06:36:39;;;;;;;;;;;;;;;8.90;48.84;101212.56;4425844;32;20823;-70
2022/03/17 06:39:06;;;;;;;;;;;;;;;8.84;49.04;101208.91;4443308;32;19998;-82
2022/03/17 06:41:33;;;;;;;;;;;;;;;8.82;49.51;101207.94;4446483;32;20040;-78
2022/03/17 06:44:00;;;;;;;;;;;;;;;9.25;48.93;101204.69;4427466;32;19989;-72
2022/03/17 06:46:26;;;;;;;;;;;;;;;9.63;48.71;101207.13;4439959;32;20805;-72
2022/03/17 06:48:53;;;;;;;;;;;;;;;9.91;46.72;101198.78;4437112;32;19981;-76
2022/03/17 06:51:20;;;;;;;;;;;;;;;10.16;43.13;101206.72;4423594;32;19996;-73
2022/03/17 06:53:47;;;;;;;;;;;;;;;10.32;41.65;101202.19;4430362;32;20460;-74
2022/03/17 06:56:14;;;;;;;;;;;;;;;10.32;41.02;101212.53;4432194;32;19992;-78
2022/03/17 06:58:40;;;;;;;;;;;;;;;10.67;39.22;101214.75;4433392;32;20005;-77
2022/03/17 07:01:07;;;;;;;;;;;;;;;10.94;38.94;101212.34;4445658;32;20680;-78
2022/03/17 07:03:34;;;;;;;;;;;;;;;11.20;37.76;101214.06;4445387;32;19985;-71
2022/03/17 07:06:01;;;;;;;;;;;;;;;11.44;36.25;101217.53;4445251;32;19973;-70
2022/03/17 07:08:28;;;;;;;;;;;;;;;11.62;36.58;101218.19;4432373;32;20050;-70
2022/03/17 07:10:55;;;;;;;;;;;;;;;11.56;37.07;101220.56;4445972;32;20003;-69
2022/03/17 07:13:22;;;;;;;;;;;;;;;11.97;35.78;101218.50;4444580;32;20322;-70
2022/03/17 07:15:48;;;;;;;;;;;;;;;12.09;35.86;101211.12;4445359;32;20000;-73
2022/03/17 07:18:16;;;;;;;;;;;;;;;12.52;35.25;101208.97;4445034;32;19985;-73
2022/03/17 07:20:43;;;;;;;;;;;;;;;12.57;35.48;101213.47;4446347;32;19989;-78
2022/03/17 07:23:10;;;;;;;;;;;;;;;12.74;34.92;101220.88;4444553;32;19999;-76
2022/03/17 07:25:37;;;;;;;;;;;;;;;12.73;35.05;101213.88;4444567;32;20259;-72
2022/03/17 07:28:04;;;;;;;;;;;;;;;12.95;35.16;101218.00;4429840;32;19990;-74
2022/03/17 07:30:31;;;;;;;;;;;;;;;12.80;34.93;101215.84;4446080;32;20032;-72
2022/03/17 07:32:59;;;;;;;;;;;;;;;13.18;34.37;101208.25;4444597;32;19989;-72
2022/03/17 07:35:27;;;;;;;;;;;;;;;13.46;34.04;101213.41;4444169;32;20019;-72
2022/03/17 07:37:54;;;;;;;;;;;;;;;13.34;34.27;101215.66;4445999;32;20038;-73
2022/03/17 07:40:21;;;;;;;;;;;;;;;13.61;33.87;101219.81;4444597;32;19993;-73
2022/03/17 07:42:48;;;;;;;;;;;;;;;13.24;34.60;101213.59;4445495;32;20034;-78
2022/03/17 07:45:17;;;;;;;;;;;;;;;13.19;34.78;101215.22;4446305;32;20027;-76
2022/03/17 07:47:47;;;;;;;;;;;;;;;13.68;34.13;101206.13;4444994;32;19992;-76
2022/03/17 07:50:15;;;;;;;;;;;;;;;14.07;33.21;101218.34;4129980;32;10004691;-72
2022/03/17 07:52:42;;;;;;;;;;;;;;;14.25;32.12;101216.19;3825798;32;10000380;-77
2022/03/17 07:55:09;;;;;;;;;;;;;;;14.15;33.37;101214.22;4451929;32;20369;-72
2022/03/17 07:57:36;;;;;;;;;;;;;;;14.61;32.07;101216.19;4445322;32;19990;-73
2022/03/17 08:00:04;;;;;;;;;;;;;;;14.48;32.58;101213.22;4454228;32;20012;-77
2022/03/17 08:02:40;;;;;;;;;;;;;;;14.80;31.62;101212.22;4445244;32;20023;-73
2022/03/17 08:05:08;;;;;;;;;;;;;;;14.96;31.54;101217.75;4452632;32;19988;-72
2022/03/17 08:07:35;;;;;;;;;;;;;;;14.92;31.57;101221.16;4445604;32;19981;-75
2022/03/17 08:10:02;;;;;;;;;;;;;;;14.73;32.16;101223.37;4444498;32;20038;-77
2022/03/17 08:12:31;;;;;;;;;;;;;;;14.65;32.21;101218.00;4445643;32;19987;-79
2022/03/17 08:14:58;;;;;;;;;;;;;;;14.66;32.54;101224.09;4444313;32;20005;-78
2022/03/17 08:17:25;;;;;;;;;;;;;;;14.83;32.20;101222.72;4445542;32;20020;-72
2022/03/17 08:19:53;;;;;;;;;;;;;;;15.28;31.56;101227.13;4445443;32;19973;-78
2022/03/17 08:22:20;;;;;;;;;;;;;;;15.23;31.52;101231.34;4444566;32;20019;-74
2022/03/17 08:24:47;;;;;;;;;;;;;;;15.46;31.61;101229.16;4444918;32;20004;-72
2022/03/17 08:27:14;;;;;;;;;;;;;;;15.23;32.05;101236.56;4445131;32;20785;-71
2022/03/17 08:29:43;;;;;;;;;;;;;;;15.50;31.52;101237.94;4444799;32;20354;-76
2022/03/17 08:32:10;;;;;;;;;;;;;;;15.71;31.14;101238.38;4445394;32;19981;-76
2022/03/17 08:34:37;;;;;;;;;;;;;;;15.33;31.71;101235.91;4445095;32;20705;-73
2022/03/17 08:37:05;;;;;;;;;;;;;;;15.52;31.51;101241.47;4444504;32;20337;-79
2022/03/17 08:39:31;;;;;;;;;;;;;;;15.05;32.48;101244.03;4445701;32;19981;-75
2022/03/17 08:41:59;;;;;;;;;;;;;;;15.52;31.46;101251.91;4434153;32;20619;-76
2022/03/17 08:44:25;;;;;;;;;;;;;;;15.41;31.73;101242.97;4445767;32;20035;-75
2022/03/17 08:49:43;;;;;;;;;;;;;;;15.79;31.00;101242.00;4446175;32;19989;-76
2022/03/17 08:52:09;;;;;;;;;;;;;;;15.90;30.92;101243.91;4446576;32;19974;-73
2022/03/17 08:54:36;;;;;;;;;;;;;;;15.63;31.38;101245.12;4425024;32;20697;-73
2022/03/17 08:57:04;;;;;;;;;;;;;;;15.22;31.97;101268.72;4432089;32;19989;-74
2022/03/17 08:59:34;;;;;;;;;;;;;;;15.07;32.12;101258.00;4446483;32;20362;-72
2022/03/17 09:02:02;;;;;;;;;;;;;;;14.91;32.62;101255.91;4444549;32;19983;-71
2022/03/17 09:04:29;;;;;;;;;;;;;;;15.02;32.39;101249.19;4433925;32;20008;-73
2022/03/17 09:06:59;;;;;;;;;;;;;;;15.37;32.00;101252.47;4446518;32;20003;-72
2022/03/17 09:09:31;;;;;;;;;;;;;;;15.62;31.88;101264.25;4446992;32;19999;-73
2022/03/17 09:11:59;;;;;;;;;;;;;;;15.66;31.96;101263.47;4446702;32;20016;-71
2022/03/17 09:14:26;;;;;;;;;;;;;;;15.33;32.11;101256.75;4446192;32;19981;-78
2022/03/17 09:16:53;;;;;;;;;;;;;;;15.24;32.50;101267.00;4445679;32;19989;-74
2022/03/17 09:19:20;;;;;;;;;;;;;;;15.10;32.17;101268.47;4446884;32;19981;-73
2022/03/17 09:21:47;;;;;;;;;;;;;;;14.93;32.48;101264.63;4447251;32;19973;-73
2022/03/17 09:24:14;;;;;;;;;;;;;;;14.64;33.08;101263.16;4446338;32;20031;-71
2022/03/17 09:26:41;;;;;;;;;;;;;;;14.63;33.66;101261.38;4440492;32;19997;-74
2022/03/17 09:29:07;;;;;;;;;;;;;;;14.45;33.46;101262.66;4462464;32;19989;-78
2022/03/17 09:31:35;;;;;;;;;;;;;;;14.32;34.02;101275.41;4460940;32;19989;-78
2022/03/17 09:34:02;;;;;;;;;;;;;;;14.45;33.33;101276.56;4462559;32;19993;-77
2022/03/17 09:36:29;;;;;;;;;;;;;;;14.77;32.55;101264.31;4447111;32;20462;-76
2022/03/17 09:41:42;;;;;;;;;;;;;;;15.07;32.26;101263.19;4446482;32;20457;-72
2022/03/17 09:44:09;;;;;;;;;;;;;;;15.01;31.91;101263.94;4446415;32;19985;-74
2022/03/17 09:46:41;;;;;;;;;;;;;;;14.54;32.32;101268.13;4446127;32;20693;-79
2022/03/17 09:49:10;;;;;;;;;;;;;;;14.44;32.55;101269.59;4432543;32;19981;-75
2022/03/17 09:51:37;;;;;;;;;;;;;;;14.00;33.28;101281.53;4446487;32;20034;-73
2022/03/17 09:54:04;;;;;;;;;;;;;;;14.15;33.21;101272.38;4447057;32;19991;-74
2022/03/17 09:56:31;;;;;;;;;;;;;;;14.34;33.51;101278.06;4446505;32;19993;-72
2022/03/17 09:58:59;;;;;;;;;;;;;;;14.28;32.72;101281.37;4429417;32;20472;-72
2022/03/17 10:01:26;;;;;;;;;;;;;;;14.28;32.71;101268.34;4428549;32;20035;-72
2022/03/17 10:04:00;;;;;;;;;;;;;;;14.25;33.05;101273.50;4437678;32;20012;-76
2022/03/17 10:06:28;;;;;;;;;;;;;;;14.15;33.13;101274.13;4428256;32;19989;-73
2022/03/17 10:08:56;;;;;;;;;;;;;;;14.49;32.98;101270.59;4441741;32;20187;-72
2022/03/17 10:11:24;;;;;;;;;;;;;;;14.64;32.71;101264.88;4437554;32;19976;-72
2022/03/17 10:13:54;;;;;;;;;;;;;;;14.29;33.54;101270.09;4423533;32;19993;-76
2022/03/17 10:16:21;;;;;;;;;;;;;;;14.35;33.46;101265.06;4443527;32;19993;-72
2022/03/17 10:19:01;;;;;;;;;;;;;;;14.74;32.39;101251.22;4413761;32;20003;-73
2022/03/17 10:21:28;;;;;;;;;;;;;;;14.93;32.29;101259.41;4441377;32;20000;-76
2022/03/17 10:24:03;;;;;;;;;;;;;;;15.17;31.93;101254.72;4441136;32;19994;-78
2022/03/17 10:26:31;;;;;;;;;;;;;;;15.25;31.92;101263.59;4444507;32;19981;-74
2022/03/17 10:29:07;;;;;;;;;;;;;;;14.56;33.11;101261.22;4443095;32;19993;-71
2022/03/17 10:31:52;;;;;;;;;;;;;;;14.56;33.89;101263.84;4446335;32;20331;-71
2022/03/17 10:34:19;;;;;;;;;;;;;;;14.86;32.68;101254.06;4445637;32;20323;-71
2022/03/17 10:36:47;;;;;;;;;;;;;;;15.30;32.44;101261.91;4446500;32;19981;-71
2022/03/17 10:39:14;;;;;;;;;;;;;;;14.86;32.32;101259.28;4419144;32;19989;-72
2022/03/17 10:41:42;;;;;;;;;;;;;;;14.85;32.55;101267.97;4444112;32;20022;-72
2022/03/17 10:44:12;;;;;;;;;;;;;;;14.96;32.84;101262.09;4445123;32;20291;-74
2022/03/17 10:46:39;;;;;;;;;;;;;;;15.15;32.45;101256.41;4424566;32;19995;-72
2022/03/17 10:49:07;;;;;;;;;;;;;;;14.92;32.55;101257.66;4425362;32;20001;-72
2022/03/17 10:51:35;;;;;;;;;;;;;;;15.38;31.99;101254.25;4446537;32;20014;-74
2022/03/17 10:54:09;;;;;;;;;;;;;;;15.60;31.71;101260.75;4431528;32;20076;-73
2022/03/17 10:56:39;;;;;;;;;;;;;;;15.17;32.65;101270.34;4444687;32;19989;-72
2022/03/17 10:59:07;;;;;;;;;;;;;;;15.00;31.94;101266.53;4431944;32;20044;-72
2022/03/17 11:01:50;;;;;;;;;;;;;;;15.11;31.69;101275.44;4443184;32;19987;-73
2022/03/17 11:04:17;;;;;;;;;;;;;;;15.13;31.86;101278.97;4445852;32;20030;-73
2022/03/17 11:06:44;;;;;;;;;;;;;;;15.48;31.34;101276.19;4458027;32;20014;-73
2022/03/17 11:09:11;;;;;;;;;;;;;;;15.25;32.08;101284.44;4445923;32;20323;-72
2022/03/17 11:11:38;;;;;;;;;;;;;;;14.97;32.84;101276.91;4445693;32;20052;-73
2022/03/17 11:14:04;;;;;;;;;;;;;;;15.04;32.17;101284.00;4446388;32;19997;-72
2022/03/17 11:16:46;;;;;;;;;;;;;;;15.18;32.18;101287.75;4457614;32;19985;-72
2022/03/17 11:19:16;;;;;;;;;;;;;;;15.23;31.77;101286.12;4457723;32;19986;-72
2022/03/17 11:21:46;;;;;;;;;;;;;;;15.13;31.94;101289.41;4446368;32;19970;-74
2022/03/17 11:24:20;;;;;;;;;;;;;;;15.07;32.43;101284.06;4445478;32;20034;-72
2022/03/17 11:26:47;;;;;;;;;;;;;;;15.41;31.71;101289.94;4437083;32;20003;-75
2022/03/17 11:29:18;;;;;;;;;;;;;;;15.67;31.27;101283.53;4427320;32;20342;-72
2022/03/17 11:31:51;;;;;;;;;;;;;;;15.50;31.87;101284.91;4444923;32;19974;-72
2022/03/17 11:34:37;;;;;;;;;;;;;;;15.29;32.62;101281.03;4430963;32;19978;-72
2022/03/17 11:37:15;;;;;;;;;;;;;;;15.77;31.83;101285.47;4441906;32;20297;-72
2022/03/17 11:39:54;;;;;;;;;;;;;;;15.51;32.71;101277.13;4457738;32;20387;-72
2022/03/17 11:42:37;;;;;;;;;;;;;;;15.27;32.45;101280.13;4445154;32;19986;-73
2022/03/17 11:45:08;;;;;;;;;;;;;;;14.89;33.39;101285.41;4456904;32;19985;-73
2022/03/17 11:47:38;;;;;;;;;;;;;;;14.77;33.58;101286.88;4443893;32;19991;-72
2022/03/17 11:50:31;;;;;;;;;;;;;;;14.87;33.61;101281.03;4440043;32;20334;-73
2022/03/17 11:52:59;;;;;;;;;;;;;;;14.94;33.80;101284.66;4439222;32;19981;-73
2022/03/17 11:55:33;;;;;;;;;;;;;;;14.86;34.16;101285.34;4445839;32;19986;-72
2022/03/17 11:58:25;;;;;;;;;;;;;;;15.09;34.05;101287.56;4445972;32;20031;-71
2022/03/17 12:01:11;;;;;;;;;;;;;;;15.33;32.99;101288.06;4445596;32;19992;-71
2022/03/17 12:03:38;;;;;;;;;;;;;;;15.42;32.98;101281.28;4446108;32;20400;-71
2022/03/17 12:06:12;;;;;;;;;;;;;;;15.74;32.12;101280.19;4445697;32;20349;-75
2022/03/17 12:08:41;;;;;;;;;;;;;;;15.32;33.20;101275.88;4445651;32;19989;-75
2022/03/17 12:11:09;;;;;;;;;;;;;;;15.57;33.35;101276.34;4444859;32;20077;-73
2022/03/17 12:13:36;;;;;;;;;;;;;;;15.83;32.05;101273.38;4444984;32;20025;-72
2022/03/17 12:16:04;;;;;;;;;;;;;;;15.73;31.55;101272.31;4458478;32;20319;-72
2022/03/17 12:18:51;;;;;;;;;;;;;;;15.80;31.59;101269.84;4447402;32;20393;-72
2022/03/17 12:21:18;;;;;;;;;;;;;;;15.48;32.91;101273.59;4445670;32;19973;-72
2022/03/17 12:23:45;;;;;;;;;;;;;;;15.04;32.90;101277.06;4458760;32;20356;-73
2022/03/17 12:26:12;;;;;;;;;;;;;;;15.23;33.30;101267.87;4446793;32;20038;-72
2022/03/17 12:28:44;;;;;;;;;;;;;;;15.54;32.30;101265.88;4446028;32;19989;-73
2022/03/17 12:31:11;;;;;;;;;;;;;;;15.34;33.61;101274.16;4441949;32;19986;-72
2022/03/17 12:33:38;;;;;;;;;;;;;;;15.29;32.44;101274.94;4446910;32;19995;-73
2022/03/17 12:36:06;;;;;;;;;;;;;;;15.52;31.32;101272.78;4446907;32;19977;-73
2022/03/17 12:38:34;;;;;;;;;;;;;;;15.66;31.92;101268.69;4394165;32;19986;-72
2022/03/17 12:41:00;;;;;;;;;;;;;;;15.20;31.65;101270.44;4446547;32;20004;-72
2022/03/17 12:43:32;;;;;;;;;;;;;;;15.40;31.37;101268.19;4434216;32;20003;-73
2022/03/17 12:45:59;;;;;;;;;;;;;;;15.39;32.39;101276.00;4445150;32;20751;-72
2022/03/17 12:48:26;;;;;;;;;;;;;;;15.76;31.65;101265.44;4429449;32;20365;-73
2022/03/17 12:51:01;;;;;;;;;;;;;;;15.83;31.41;101279.47;4438821;32;19985;-76
2022/03/17 12:53:28;;;;;;;;;;;;;;;15.51;31.34;101278.88;4437047;32;19995;-72
2022/03/17 12:55:55;;;;;;;;;;;;;;;15.85;30.86;101276.88;4428096;32;20012;-72
2022/03/17 12:58:22;;;;;;;;;;;;;;;15.93;30.24;101264.84;4437311;32;19990;-74
2022/03/17 13:00:49;;;;;;;;;;;;;;;16.03;31.26;101271.97;4433210;32;19997;-73
2022/03/17 13:03:17;;;;;;;;;;;;;;;16.03;31.00;101269.38;4444468;32;20382;-72
2022/03/17 13:08:35;;;;;;;;;;;;;;;15.75;31.04;101271.50;4445018;32;19993;-73